Time;durP1;ratioP1;P1;durP2;ratioP2;P2;SDS_P1;SDS_P2;PMS_P1;PMS_P2;Temp;Humidity;BMP_temperature;BMP_pressure;BME280_temperature;BME280_humidity;BME280_pressure;Samples;Min_cycle;Max_cycle;Signal;HPM_P1;HPM_P2
2022/01/24 00:00:11;;;;;;;12.25;9.13;;;5.30;99.90;;;;;;5094288;28;20392;-67
2022/01/24 00:02:38;;;;;;;12.57;9.32;;;5.20;99.90;;;;;;5093086;28;20147;-69
2022/01/24 00:05:04;;;;;;;12.13;9.50;;;5.40;99.90;;;;;;5093984;28;20048;-69
2022/01/24 00:07:31;;;;;;;12.55;9.88;;;5.30;99.90;;;;;;5076439;28;20425;-69
2022/01/24 00:10:00;;;;;;;12.48;9.43;;;5.20;99.90;;;;;;5076667;28;20048;-69
2022/01/24 00:12:34;;;;;;;10.68;8.50;;;5.30;99.90;;;;;;5093272;28;20490;-70
2022/01/24 00:15:21;;;;;;;12.98;9.85;;;5.30;99.90;;;;;;5077077;28;20059;-69
2022/01/24 00:17:50;;;;;;;14.65;9.68;;;5.30;99.90;;;;;;5092819;28;20052;-69
2022/01/24 00:28:14;;;;;;;13.20;10.40;;;5.30;99.90;;;;;;5094659;28;20052;-68
2022/01/24 00:30:40;;;;;;;13.65;11.10;;;5.20;99.90;;;;;;5093488;28;20052;-71
2022/01/24 00:33:06;;;;;;;15.13;10.05;;;5.30;99.90;;;;;;5092142;28;20104;-70
2022/01/24 00:35:32;;;;;;;13.55;9.95;;;5.30;99.90;;;;;;5093707;28;20056;-68
2022/01/24 00:38:01;;;;;;;13.70;10.57;;;5.20;99.90;;;;;;5093094;28;20059;-68
2022/01/24 00:40:28;;;;;;;13.77;10.38;;;5.30;99.90;;;;;;5092814;28;20059;-68
2022/01/24 00:42:57;;;;;;;14.27;9.57;;;5.30;99.90;;;;;;5094327;28;20395;-69
2022/01/24 00:56:09;;;;;;;12.02;9.05;;;5.10;99.90;;;;;;5074104;28;20048;-68
2022/01/24 00:58:35;;;;;;;12.68;9.30;;;5.50;99.90;;;;;;5076791;28;20044;-69
2022/01/24 01:01:01;;;;;;;12.30;9.00;;;5.40;99.90;;;;;;5084830;28;20075;-69
2022/01/24 01:03:26;;;;;;;12.20;9.00;;;5.20;99.90;;;;;;5089514;28;20132;-69
2022/01/24 01:06:06;;;;;;;10.82;8.07;;;5.20;99.90;;;;;;5105884;28;20060;-68
2022/01/24 01:19:40;;;;;;;13.02;9.27;;;5.20;99.90;;;;;;5093605;28;20119;-69
2022/01/24 01:22:06;;;;;;;12.48;9.85;;;5.10;99.90;;;;;;5091920;28;20088;-69
2022/01/24 01:24:36;;;;;;;12.77;9.85;;;5.10;99.90;;;;;;5092107;28;20052;-68
2022/01/24 01:27:08;;;;;;;13.95;9.75;;;5.20;99.90;;;;;;5093602;28;20071;-70
2022/01/24 01:29:48;;;;;;;13.50;10.23;;;5.20;99.90;;;;;;5092087;28;20082;-68
2022/01/24 01:32:57;;;;;;;12.55;9.48;;;5.10;99.90;;;;;;5072855;28;20106;-68
2022/01/24 01:54:09;;;;;;;13.18;9.52;;;5.10;99.90;;;;;;5091719;28;20485;-70
2022/01/24 01:56:35;;;;;;;15.52;11.10;;;5.00;99.90;;;;;;5091645;28;20050;-69
2022/01/24 01:59:00;;;;;;;15.45;11.30;;;5.10;99.90;;;;;;5075070;28;20131;-69
2022/01/24 02:01:26;;;;;;;15.73;12.02;;;5.10;99.90;;;;;;5091428;28;20052;-69
2022/01/24 02:03:54;;;;;;;15.80;11.80;;;5.00;99.90;;;;;;5092053;28;20051;-69
2022/01/24 02:06:24;;;;;;;16.45;12.32;;;5.30;99.90;;;;;;5091081;28;20156;-71
2022/01/24 02:09:05;;;;;;;14.70;11.90;;;5.20;99.90;;;;;;5091079;28;20375;-70
2022/01/24 02:11:30;;;;;;;15.98;12.00;;;5.20;99.90;;;;;;5105452;28;20067;-69
2022/01/24 02:13:59;;;;;;;18.45;12.05;;;5.10;99.90;;;;;;5071581;28;20053;-69
2022/01/24 02:16:36;;;;;;;18.15;13.15;;;5.20;99.90;;;;;;5071092;28;20059;-71
2022/01/24 02:22:17;;;;;;;17.05;12.18;;;5.20;99.90;;;;;;5092840;28;20062;-70
2022/01/24 02:24:52;;;;;;;18.13;12.40;;;5.00;99.90;;;;;;5090965;28;20052;-69
2022/01/24 02:27:18;;;;;;;17.48;12.73;;;4.90;99.90;;;;;;5074712;28;20060;-69
2022/01/24 02:32:11;;;;;;;19.83;12.85;;;5.10;99.90;;;;;;5070380;28;20060;-69
2022/01/24 02:34:41;;;;;;;18.42;13.88;;;5.20;99.90;;;;;;5065170;28;20476;-67
2022/01/24 02:37:15;;;;;;;16.30;11.75;;;5.20;99.90;;;;;;5076016;28;20076;-69
2022/01/24 02:50:42;;;;;;;18.80;13.35;;;5.10;99.90;;;;;;5103990;28;20126;-69
2022/01/24 02:53:08;;;;;;;16.23;12.75;;;5.20;99.90;;;;;;5087292;28;20048;-70
2022/01/24 02:55:38;;;;;;;18.95;13.23;;;4.90;99.90;;;;;;5091426;28;20094;-69
2022/01/24 02:58:04;;;;;;;17.98;12.73;;;5.10;99.90;;;;;;5090009;28;20052;-67
2022/01/24 03:00:29;;;;;;;17.17;12.75;;;5.00;99.90;;;;;;5090976;28;20043;-67
2022/01/24 03:02:55;;;;;;;16.42;11.98;;;5.20;99.90;;;;;;5075013;28;20174;-68
2022/01/24 03:05:20;;;;;;;17.73;12.80;;;5.00;99.90;;;;;;5072022;28;20170;-68
2022/01/24 03:07:46;;;;;;;18.42;13.30;;;5.00;99.90;;;;;;5070857;28;20060;-69
2022/01/24 03:10:23;;;;;;;18.48;12.88;;;5.00;99.90;;;;;;5072218;28;20239;-69
2022/01/24 03:12:58;;;;;;;20.05;14.13;;;5.00;99.90;;;;;;5070795;28;20099;-68
2022/01/24 03:15:23;;;;;;;18.88;13.88;;;5.10;99.90;;;;;;5075756;28;20049;-68
2022/01/24 03:17:49;;;;;;;20.27;13.75;;;5.20;99.90;;;;;;5074623;28;20059;-68
2022/01/24 03:20:14;;;;;;;20.48;14.85;;;5.00;99.90;;;;;;5079654;28;20047;-68
2022/01/24 03:22:40;;;;;;;19.77;14.10;;;5.10;99.90;;;;;;5076704;28;20048;-69
2022/01/24 03:25:06;;;;;;;19.95;14.65;;;5.00;99.90;;;;;;5089571;28;20124;-68
2022/01/24 03:27:31;;;;;;;18.73;14.43;;;5.00;99.90;;;;;;5075781;28;20080;-68
2022/01/24 03:29:57;;;;;;;18.60;14.18;;;5.10;99.90;;;;;;5079797;28;20051;-69
2022/01/24 03:32:23;;;;;;;19.23;14.07;;;5.00;99.90;;;;;;5073861;28;20067;-68
2022/01/24 03:34:49;;;;;;;21.55;14.20;;;4.90;99.90;;;;;;5075967;28;20056;-68
2022/01/24 03:37:14;;;;;;;18.27;13.60;;;5.10;99.90;;;;;;5095223;28;20043;-69
2022/01/24 03:39:40;;;;;;;18.55;13.82;;;5.00;99.90;;;;;;5093474;28;20051;-70
2022/01/24 03:42:06;;;;;;;19.10;13.27;;;4.90;99.90;;;;;;5118651;27;20052;-72
2022/01/24 03:44:31;;;;;;;23.27;15.23;;;4.90;99.90;;;;;;5074022;28;20059;-70
2022/01/24 03:49:45;;;;;;;20.90;15.23;;;5.00;99.90;;;;;;5075046;28;20487;-69
2022/01/24 03:52:12;;;;;;;22.83;15.55;;;4.90;99.90;;;;;;5107115;28;20131;-71
2022/01/24 03:54:37;;;;;;;21.77;15.27;;;4.90;99.90;;;;;;5075642;28;20110;-69
2022/01/24 03:57:03;;;;;;;20.58;14.75;;;4.90;99.90;;;;;;5085450;28;20432;-70
2022/01/24 03:59:30;;;;;;;20.35;15.00;;;4.90;99.90;;;;;;5073752;28;20136;-70
2022/01/24 04:02:00;;;;;;;22.08;15.18;;;5.00;99.90;;;;;;5090450;28;20056;-68
2022/01/24 04:04:27;;;;;;;20.80;14.77;;;5.00;99.90;;;;;;5093093;28;20123;-69
2022/01/24 04:06:53;;;;;;;20.85;14.95;;;5.00;99.90;;;;;;5090101;28;20043;-68
2022/01/24 04:09:19;;;;;;;24.33;15.57;;;4.90;99.90;;;;;;5093791;28;20052;-67
2022/01/24 04:11:48;;;;;;;21.75;15.00;;;5.10;99.90;;;;;;5088442;28;20129;-70
2022/01/24 04:22:27;;;;;;;21.27;14.70;;;4.90;99.90;;;;;;5093401;28;20140;-67
2022/01/24 04:25:01;;;;;;;22.58;15.38;;;5.30;99.90;;;;;;5094935;28;20044;-69
2022/01/24 04:27:28;;;;;;;19.75;13.98;;;4.90;99.90;;;;;;5093398;28;20518;-70
2022/01/24 04:29:54;;;;;;;21.25;14.35;;;5.10;99.90;;;;;;5093414;28;20430;-69
2022/01/24 04:32:20;;;;;;;16.98;13.15;;;5.00;99.90;;;;;;5092487;28;20062;-70
2022/01/24 04:34:46;;;;;;;16.45;12.57;;;4.90;99.90;;;;;;5076303;28;20040;-69
2022/01/24 04:37:12;;;;;;;18.20;13.73;;;5.00;99.90;;;;;;5092886;28;20101;-69
2022/01/24 04:39:37;;;;;;;18.83;12.95;;;5.00;99.90;;;;;;5093013;28;20190;-68
2022/01/24 04:42:10;;;;;;;16.80;12.50;;;4.90;99.90;;;;;;5093266;28;20563;-70
2022/01/24 04:52:40;;;;;;;16.52;11.95;;;4.90;99.90;;;;;;5092699;28;20392;-70
2022/01/24 04:55:06;;;;;;;15.80;11.38;;;4.90;99.90;;;;;;5093577;28;20334;-69
2022/01/24 04:57:32;;;;;;;14.38;11.05;;;4.90;99.90;;;;;;5092786;28;20055;-71
2022/01/24 05:00:00;;;;;;;13.70;10.77;;;4.80;99.90;;;;;;5093346;28;20488;-70
2022/01/24 05:02:26;;;;;;;16.23;11.50;;;4.90;99.90;;;;;;5075486;28;20048;-71
2022/01/24 05:04:53;;;;;;;15.32;11.15;;;4.90;99.90;;;;;;5092784;28;20048;-70
2022/01/24 05:07:18;;;;;;;15.55;10.77;;;4.90;99.90;;;;;;5092475;28;20063;-68
2022/01/24 05:09:55;;;;;;;14.75;11.00;;;4.80;99.90;;;;;;5093940;28;20484;-70
2022/01/24 05:12:33;;;;;;;15.38;11.25;;;4.90;99.90;;;;;;5085357;28;20056;-70
2022/01/24 05:25:57;;;;;;;15.77;11.15;;;4.90;99.90;;;;;;5090191;28;20056;-70
2022/01/24 05:28:23;;;;;;;13.40;10.80;;;4.90;99.90;;;;;;5082472;28;20068;-70
2022/01/24 05:30:50;;;;;;;14.35;11.30;;;4.90;99.90;;;;;;5091037;28;20126;-71
2022/01/24 05:33:16;;;;;;;16.30;10.98;;;5.20;99.90;;;;;;5093490;28;20376;-71
2022/01/24 05:35:42;;;;;;;14.52;11.00;;;4.90;99.90;;;;;;5091987;28;20408;-68
2022/01/24 05:38:10;;;;;;;15.77;12.02;;;5.10;99.90;;;;;;5092319;28;20109;-67
2022/01/24 05:40:36;;;;;;;16.08;12.05;;;4.90;99.90;;;;;;5092464;28;20165;-68
2022/01/24 05:43:02;;;;;;;16.08;12.13;;;4.70;99.90;;;;;;5093226;28;20052;-69
2022/01/24 05:45:27;;;;;;;16.42;11.82;;;4.90;99.90;;;;;;5091885;28;20044;-71
2022/01/24 05:47:53;;;;;;;17.88;11.93;;;5.10;99.90;;;;;;5091807;28;20066;-69
2022/01/24 05:50:19;;;;;;;15.23;11.65;;;4.80;99.90;;;;;;5091605;28;20059;-70
2022/01/24 05:52:44;;;;;;;16.90;11.85;;;5.20;99.90;;;;;;5075268;28;20131;-69
2022/01/24 05:55:10;;;;;;;14.55;11.85;;;4.80;99.90;;;;;;5093291;28;20457;-67
2022/01/24 05:57:36;;;;;;;15.98;12.23;;;5.00;99.90;;;;;;5093129;28;20498;-69
2022/01/24 06:00:05;;;;;;;16.50;12.57;;;5.10;99.90;;;;;;5092368;28;20113;-69
2022/01/24 06:02:30;;;;;;;20.17;12.95;;;4.40;99.90;;;;;;5091795;28;20427;-69
2022/01/24 06:04:56;;;;;;;16.90;12.95;;;4.80;99.90;;;;;;5092568;28;20101;-67
2022/01/24 06:07:21;;;;;;;19.95;14.13;;;4.90;99.90;;;;;;5091266;28;20059;-69
2022/01/24 06:09:47;;;;;;;17.30;12.90;;;4.90;99.90;;;;;;5091982;28;20058;-68
2022/01/24 06:12:12;;;;;;;17.95;12.77;;;5.00;99.90;;;;;;5091483;28;20472;-69
2022/01/24 06:14:38;;;;;;;18.95;13.77;;;4.80;99.90;;;;;;5075280;28;20476;-69
2022/01/24 06:17:04;;;;;;;20.20;13.82;;;4.80;99.90;;;;;;5090577;28;20381;-71
2022/01/24 06:19:29;;;;;;;21.98;15.05;;;4.90;99.90;;;;;;5091604;28;20055;-69
2022/01/24 06:21:55;;;;;;;26.65;16.27;;;4.90;99.90;;;;;;5091544;28;20048;-68
2022/01/24 06:24:20;;;;;;;24.10;16.80;;;4.80;99.90;;;;;;5091956;28;20059;-67
2022/01/24 06:26:46;;;;;;;21.60;15.27;;;4.90;99.90;;;;;;5091136;28;20507;-69
2022/01/24 06:29:12;;;;;;;25.15;15.63;;;4.70;99.90;;;;;;5091894;28;20130;-70
2022/01/24 06:31:38;;;;;;;24.55;16.42;;;5.00;99.90;;;;;;5090619;28;20060;-68
2022/01/24 06:34:05;;;;;;;23.98;16.10;;;4.90;99.90;;;;;;5092990;28;20117;-68
2022/01/24 06:36:30;;;;;;;23.33;15.88;;;4.90;99.90;;;;;;5073199;28;20063;-69
2022/01/24 06:38:56;;;;;;;28.05;17.75;;;4.90;99.90;;;;;;5083335;28;20052;-69
2022/01/24 06:41:28;;;;;;;29.10;18.63;;;4.90;99.90;;;;;;5091023;28;20500;-67
2022/01/24 06:43:53;;;;;;;35.85;20.17;;;4.90;99.90;;;;;;5086920;28;20529;-68
2022/01/24 06:46:19;;;;;;;32.20;20.40;;;4.90;99.90;;;;;;5076765;28;20048;-70
2022/01/24 06:48:44;;;;;;;30.92;21.05;;;4.80;99.90;;;;;;5092164;28;20060;-69
2022/01/24 06:51:10;;;;;;;28.85;19.10;;;4.90;99.90;;;;;;5090194;28;20048;-69
2022/01/24 06:53:40;;;;;;;30.88;19.60;;;4.90;99.90;;;;;;5094239;28;20408;-69
2022/01/24 06:56:06;;;;;;;28.38;18.17;;;4.80;99.90;;;;;;5089564;28;20110;-71
2022/01/24 06:58:33;;;;;;;34.08;21.33;;;4.90;99.90;;;;;;5075763;28;20430;-69
2022/01/24 07:00:59;;;;;;;34.30;22.00;;;4.90;99.90;;;;;;5073759;28;20511;-69
2022/01/24 07:03:25;;;;;;;35.15;21.40;;;4.90;99.90;;;;;;5076128;28;20049;-68
2022/01/24 07:05:50;;;;;;;36.55;22.77;;;4.80;99.90;;;;;;5074254;28;20057;-70
2022/01/24 07:08:16;;;;;;;38.13;21.70;;;4.80;99.90;;;;;;5093245;28;20486;-68
2022/01/24 07:10:41;;;;;;;35.05;22.20;;;4.80;99.90;;;;;;5094811;28;20492;-68
2022/01/24 07:13:07;;;;;;;42.85;25.70;;;4.90;99.90;;;;;;5094477;28;20380;-68
2022/01/24 07:15:37;;;;;;;44.70;26.50;;;4.90;99.90;;;;;;5061007;28;20080;-69
2022/01/24 07:20:38;;;;;;;47.10;26.27;;;4.90;99.90;;;;;;5075942;28;20495;-70
2022/01/24 07:23:04;;;;;;;43.30;25.63;;;5.10;99.90;;;;;;5093761;28;20070;-70
2022/01/24 07:25:29;;;;;;;48.50;28.05;;;5.20;99.90;;;;;;5094402;28;20511;-68
2022/01/24 07:27:55;;;;;;;43.58;25.88;;;4.90;99.90;;;;;;5087984;28;20110;-70
2022/01/24 07:30:20;;;;;;;46.50;26.42;;;4.90;99.90;;;;;;5082377;28;20052;-68
2022/01/24 07:32:46;;;;;;;52.30;31.35;;;4.90;99.90;;;;;;5084100;28;20123;-69
2022/01/24 07:35:11;;;;;;;57.42;32.40;;;4.80;99.90;;;;;;5092893;28;20546;-69
2022/01/24 07:37:37;;;;;;;54.50;31.95;;;4.90;99.90;;;;;;5093082;28;20056;-69
2022/01/24 07:40:06;;;;;;;56.22;32.92;;;4.90;99.90;;;;;;5095842;28;20052;-68
2022/01/24 07:45:18;;;;;;;56.42;32.00;;;4.70;99.90;;;;;;5118061;27;20071;-68
2022/01/24 07:47:43;;;;;;;63.10;34.67;;;5.00;99.90;;;;;;5087786;28;20049;-67
2022/01/24 07:50:09;;;;;;;62.22;35.90;;;4.80;99.90;;;;;;5077022;28;20519;-68
2022/01/24 07:52:36;;;;;;;60.08;34.40;;;4.90;99.90;;;;;;5089935;28;20048;-69
2022/01/24 07:55:02;;;;;;;59.92;33.58;;;4.80;99.90;;;;;;5076367;28;20051;-69
2022/01/24 07:57:28;;;;;;;60.90;34.33;;;5.20;99.90;;;;;;5075594;28;20048;-69
2022/01/24 07:59:54;;;;;;;59.25;35.75;;;4.90;99.90;;;;;;5076937;28;20070;-69
2022/01/24 08:02:19;;;;;;;61.53;35.75;;;4.90;99.90;;;;;;5089993;28;20473;-68
2022/01/24 08:04:45;;;;;;;65.15;37.38;;;4.90;99.90;;;;;;5076376;28;20063;-68
2022/01/24 08:07:27;;;;;;;65.40;39.10;;;5.00;99.90;;;;;;5091679;28;20052;-68
2022/01/24 08:10:11;;;;;;;65.65;38.80;;;4.90;99.90;;;;;;5071199;28;20388;-68
2022/01/24 08:12:39;;;;;;;68.82;40.97;;;5.10;99.90;;;;;;5074376;28;20059;-70
2022/01/24 08:15:06;;;;;;;69.43;40.83;;;4.80;99.90;;;;;;5062983;28;20040;-69
2022/01/24 08:17:32;;;;;;;66.50;39.80;;;4.90;99.90;;;;;;5083859;28;20132;-70
2022/01/24 08:19:58;;;;;;;68.50;41.63;;;5.20;99.90;;;;;;5069950;28;20132;-68
2022/01/24 08:22:24;;;;;;;69.20;40.65;;;5.20;99.90;;;;;;5072394;28;20044;-69
2022/01/24 08:24:53;;;;;;;65.07;38.90;;;5.00;99.90;;;;;;5073743;28;20048;-69
2022/01/24 08:27:19;;;;;;;64.20;40.05;;;5.20;99.90;;;;;;5106952;28;20065;-69
2022/01/24 08:29:48;;;;;;;67.07;40.45;;;5.20;99.90;;;;;;5073114;28;20047;-68
2022/01/24 08:32:14;;;;;;;73.05;42.63;;;4.90;99.90;;;;;;5072145;28;20052;-69
2022/01/24 08:34:40;;;;;;;65.78;38.60;;;5.10;99.90;;;;;;5107054;28;20070;-69
2022/01/24 08:37:06;;;;;;;68.20;40.00;;;5.20;99.90;;;;;;5087314;28;20040;-68
2022/01/24 08:39:32;;;;;;;69.20;41.65;;;5.10;99.90;;;;;;5091725;28;20453;-70
2022/01/24 08:42:11;;;;;;;64.47;41.78;;;5.00;99.90;;;;;;5092966;28;20062;-69
2022/01/24 08:47:23;;;;;;;66.00;41.05;;;5.10;99.90;;;;;;5106820;28;20178;-68
2022/01/24 08:49:49;;;;;;;64.05;39.53;;;5.00;99.90;;;;;;5092914;28;20507;-70
2022/01/24 08:52:15;;;;;;;63.75;38.70;;;5.20;99.90;;;;;;5091249;28;20441;-71
2022/01/24 08:54:40;;;;;;;66.60;40.53;;;5.30;99.90;;;;;;5073181;28;20059;-69
2022/01/24 08:57:07;;;;;;;71.43;41.20;;;5.20;99.90;;;;;;5072108;28;20544;-70
2022/01/24 08:59:33;;;;;;;62.85;37.58;;;5.10;99.90;;;;;;5092803;28;20055;-69
2022/01/24 09:02:00;;;;;;;66.90;40.15;;;5.20;99.90;;;;;;5092731;28;20056;-69
2022/01/24 09:04:25;;;;;;;70.35;41.58;;;5.20;99.90;;;;;;5080152;28;20044;-70
2022/01/24 09:06:52;;;;;;;70.70;41.08;;;5.20;99.90;;;;;;5085544;28;20058;-68
2022/01/24 09:09:19;;;;;;;67.93;39.28;;;5.10;99.90;;;;;;5082403;28;20377;-70
2022/01/24 09:11:44;;;;;;;64.28;38.72;;;5.30;99.90;;;;;;5093566;28;20062;-68
2022/01/24 09:14:10;;;;;;;64.40;39.28;;;5.20;99.90;;;;;;5087829;28;20131;-69
2022/01/24 09:16:37;;;;;;;69.05;39.72;;;5.20;99.90;;;;;;5083861;28;20056;-69
2022/01/24 09:19:04;;;;;;;65.43;39.92;;;5.20;99.90;;;;;;5079226;28;20049;-70
2022/01/24 09:21:34;;;;;;;63.67;38.30;;;5.40;99.90;;;;;;5072738;28;20052;-70
2022/01/24 09:24:00;;;;;;;59.45;36.40;;;5.40;99.90;;;;;;5092675;28;20105;-71
2022/01/24 09:26:26;;;;;;;73.43;43.08;;;5.30;99.90;;;;;;5075086;28;20040;-70
2022/01/24 09:28:52;;;;;;;66.70;40.83;;;5.30;99.90;;;;;;5086097;28;20469;-72
2022/01/24 09:31:18;;;;;;;67.90;40.28;;;5.30;99.90;;;;;;5063177;28;20098;-71
2022/01/24 09:33:44;;;;;;;65.53;38.30;;;5.40;99.90;;;;;;5075863;28;20051;-73
2022/01/24 09:36:09;;;;;;;65.25;39.25;;;5.40;99.90;;;;;;5081137;28;20056;-69
2022/01/24 09:38:36;;;;;;;73.10;41.33;;;5.20;99.90;;;;;;5092337;28;20102;-70
2022/01/24 09:41:10;;;;;;;65.30;40.58;;;5.40;99.90;;;;;;5092368;28;20047;-69
2022/01/24 09:43:36;;;;;;;65.35;38.78;;;5.40;99.90;;;;;;5088847;28;20056;-69
2022/01/24 09:46:02;;;;;;;65.93;37.92;;;5.40;99.90;;;;;;5092854;28;20531;-68
2022/01/24 09:48:29;;;;;;;64.10;38.10;;;5.30;99.90;;;;;;5093310;28;20071;-69
2022/01/24 09:50:55;;;;;;;65.07;38.90;;;5.30;99.90;;;;;;5087764;28;20052;-68
2022/01/24 09:53:22;;;;;;;61.92;38.05;;;5.50;99.90;;;;;;5086156;28;20048;-69
2022/01/24 09:55:49;;;;;;;63.13;37.80;;;5.50;99.90;;;;;;5089805;28;20055;-69
2022/01/24 09:58:15;;;;;;;61.42;37.13;;;5.50;99.90;;;;;;5087474;28;20090;-70
2022/01/24 10:00:41;;;;;;;63.65;36.55;;;5.50;99.90;;;;;;5071581;28;20097;-68
2022/01/24 10:03:08;;;;;;;63.42;38.00;;;5.40;99.90;;;;;;5071129;28;20056;-69
2022/01/24 10:05:37;;;;;;;68.22;38.67;;;5.40;99.90;;;;;;5077365;28;20098;-68
2022/01/24 10:08:16;;;;;;;62.25;37.70;;;5.40;99.90;;;;;;5091671;28;20051;-69
2022/01/24 10:10:50;;;;;;;64.43;37.92;;;5.30;99.90;;;;;;5091384;28;20123;-69
2022/01/24 10:16:37;;;;;;;64.15;38.22;;;5.40;99.90;;;;;;5090589;28;20126;-68
2022/01/24 10:19:22;;;;;;;61.53;35.60;;;5.40;99.90;;;;;;5091801;28;20134;-70
2022/01/24 10:22:00;;;;;;;62.67;38.05;;;5.40;99.90;;;;;;5090365;28;20063;-67
2022/01/24 10:24:26;;;;;;;61.13;37.13;;;;;;;;;;5091925;28;20071;-67
2022/01/24 10:27:13;;;;;;;59.38;36.45;;;5.40;99.90;;;;;;5081691;28;20052;-68
2022/01/24 10:30:02;;;;;;;63.47;38.30;;;5.60;99.90;;;;;;5095377;28;20094;-69
2022/01/24 10:32:37;;;;;;;58.83;36.20;;;5.30;99.90;;;;;;5091093;28;20133;-67
2022/01/24 10:35:22;;;;;;;62.92;38.22;;;5.40;99.90;;;;;;5056741;28;20051;-69
2022/01/24 10:37:48;;;;;;;64.15;37.53;;;5.40;99.90;;;;;;5092058;28;20088;-71
2022/01/24 10:40:45;;;;;;;60.95;37.33;;;5.40;99.90;;;;;;5092926;28;20044;-71
2022/01/24 10:43:19;;;;;;;57.45;35.88;;;5.40;99.90;;;;;;5094897;28;20051;-69
2022/01/24 10:45:46;;;;;;;58.85;35.53;;;5.40;99.90;;;;;;5094746;28;20345;-70
2022/01/24 10:48:12;;;;;;;62.17;37.15;;;5.50;99.90;;;;;;5094362;28;20056;-70
2022/01/24 10:50:37;;;;;;;59.83;36.15;;;5.50;99.90;;;;;;5095229;28;20063;-68
2022/01/24 10:53:12;;;;;;;57.78;33.45;;;5.50;99.90;;;;;;5094768;28;20070;-71
2022/01/24 10:55:41;;;;;;;58.30;34.55;;;5.50;99.90;;;;;;5095308;28;20428;-72
2022/01/24 10:58:09;;;;;;;55.97;33.90;;;5.50;99.90;;;;;;5094672;28;20097;-69
2022/01/24 11:00:37;;;;;;;56.33;34.75;;;5.60;99.90;;;;;;5094650;28;20044;-70
2022/01/24 11:03:03;;;;;;;52.63;33.15;;;5.50;99.90;;;;;;5093005;28;20055;-69
2022/01/24 11:05:37;;;;;;;54.38;32.55;;;5.50;99.90;;;;;;5094293;28;20055;-69
2022/01/24 11:08:05;;;;;;;52.08;32.08;;;5.50;99.90;;;;;;5096228;28;20063;-69
2022/01/24 11:10:32;;;;;;;48.70;29.90;;;5.50;99.90;;;;;;5093910;28;20087;-69
2022/01/24 11:12:59;;;;;;;53.50;32.28;;;5.50;99.90;;;;;;5087224;28;20048;-70
2022/01/24 11:15:26;;;;;;;52.53;32.65;;;5.50;99.90;;;;;;5085846;28;20115;-70
2022/01/24 11:17:57;;;;;;;49.15;31.10;;;5.50;99.90;;;;;;5083034;28;20053;-71
2022/01/24 11:20:29;;;;;;;49.60;31.63;;;5.50;99.90;;;;;;5074787;28;20052;-70
2022/01/24 11:23:00;;;;;;;46.60;30.13;;;5.50;99.90;;;;;;5088374;28;20044;-71
2022/01/24 11:25:29;;;;;;;52.17;33.70;;;5.50;99.90;;;;;;5095302;28;20189;-71
2022/01/24 11:27:55;;;;;;;54.42;34.28;;;5.50;99.90;;;;;;5094365;28;20080;-69
2022/01/24 11:30:25;;;;;;;46.60;30.45;;;5.50;99.90;;;;;;5094905;28;20144;-70
2022/01/24 11:33:07;;;;;;;45.53;29.48;;;5.50;99.90;;;;;;5093761;28;20056;-70
2022/01/24 11:35:45;;;;;;;43.60;27.83;;;5.50;99.90;;;;;;5094332;28;20118;-68
2022/01/24 11:38:33;;;;;;;45.80;30.10;;;5.40;99.90;;;;;;5080177;28;20056;-72
2022/01/24 11:41:03;;;;;;;44.10;29.75;;;5.40;99.90;;;;;;5075532;28;20516;-69
2022/01/24 11:43:39;;;;;;;45.17;28.05;;;5.40;99.90;;;;;;5108086;28;20507;-68
2022/01/24 11:46:47;;;;;;;42.40;29.08;;;5.40;99.90;;;;;;5076456;28;20063;-69
2022/01/24 11:49:15;;;;;;;41.95;28.40;;;5.40;99.90;;;;;;5094170;28;20060;-71
2022/01/24 11:51:50;;;;;;;42.53;28.45;;;5.40;99.90;;;;;;5092838;28;20052;-69
2022/01/24 11:54:31;;;;;;;42.33;28.33;;;5.40;99.90;;;;;;5094807;28;20392;-70
2022/01/24 11:57:17;;;;;;;43.60;27.98;;;5.40;99.90;;;;;;5093720;28;20059;-69
2022/01/24 11:59:43;;;;;;;53.88;32.65;;;5.50;99.90;;;;;;5094108;28;20066;-69
2022/01/24 12:02:12;;;;;;;45.53;28.95;;;5.50;99.90;;;;;;5093050;28;20074;-70
2022/01/24 12:04:56;;;;;;;41.05;28.48;;;5.50;99.90;;;;;;5094145;28;20059;-69
2022/01/24 12:07:31;;;;;;;44.65;28.58;;;5.50;99.90;;;;;;5086689;28;20052;-69
2022/01/24 12:10:22;;;;;;;39.05;28.10;;;5.50;99.90;;;;;;5078861;28;20059;-69
2022/01/24 12:12:54;;;;;;;39.88;27.88;;;5.50;99.90;;;;;;5093515;28;20531;-68
2022/01/24 12:15:38;;;;;;;39.05;26.35;;;5.50;99.90;;;;;;5095357;28;20160;-69
2022/01/24 12:18:08;;;;;;;40.03;27.70;;;5.50;99.90;;;;;;5094136;28;20055;-70
2022/01/24 12:20:42;;;;;;;39.53;27.67;;;5.50;99.90;;;;;;5093965;28;20052;-69
2022/01/24 12:23:16;;;;;;;41.40;27.27;;;5.50;99.90;;;;;;5084972;28;20127;-69
2022/01/24 12:25:53;;;;;;;41.13;27.85;;;5.50;99.90;;;;;;5084661;28;20453;-71
2022/01/24 12:28:23;;;;;;;46.10;29.25;;;5.60;99.90;;;;;;5108195;27;20056;-68
2022/01/24 12:31:00;;;;;;;49.53;32.53;;;5.60;99.90;;;;;;5074243;28;20112;-69
2022/01/24 12:33:41;;;;;;;50.00;31.23;;;5.60;99.90;;;;;;5093834;28;20082;-68
2022/01/24 12:36:14;;;;;;;52.72;32.35;;;5.60;99.90;;;;;;5094311;28;20060;-71
2022/01/24 12:38:43;;;;;;;47.70;30.98;;;5.50;99.90;;;;;;5073599;28;20062;-68
2022/01/24 12:41:24;;;;;;;48.30;30.40;;;5.50;99.90;;;;;;5106708;28;20064;-72
2022/01/24 12:44:08;;;;;;;51.42;32.38;;;5.50;99.90;;;;;;5073177;28;20055;-68
2022/01/24 12:46:34;;;;;;;45.92;30.85;;;5.50;99.90;;;;;;5072194;28;20499;-69
2022/01/24 12:49:03;;;;;;;45.25;29.55;;;5.50;99.90;;;;;;5107413;28;20339;-69
2022/01/24 12:51:33;;;;;;;45.42;29.58;;;5.50;99.90;;;;;;5078559;28;20058;-71
2022/01/24 12:53:58;;;;;;;47.90;30.85;;;5.50;99.90;;;;;;5093064;28;20102;-68
2022/01/24 12:56:26;;;;;;;51.53;33.60;;;5.60;99.90;;;;;;5092065;28;20060;-69
2022/01/24 12:58:52;;;;;;;44.85;29.83;;;5.60;99.90;;;;;;5092717;28;20048;-68
2022/01/24 13:01:20;;;;;;;41.05;28.88;;;5.50;99.90;;;;;;5075075;28;20109;-69
2022/01/24 13:03:59;;;;;;;45.90;29.23;;;5.50;99.90;;;;;;5094101;28;20059;-68
2022/01/24 13:06:31;;;;;;;42.58;28.27;;;5.50;99.90;;;;;;5092483;28;20076;-69
2022/01/24 13:09:03;;;;;;;46.58;31.33;;;5.50;99.90;;;;;;5092861;28;20138;-70
2022/01/24 13:11:29;;;;;;;45.40;29.15;;;5.50;99.90;;;;;;5092038;28;20084;-69
2022/01/24 13:14:08;;;;;;;44.25;30.35;;;5.50;99.90;;;;;;5092342;28;20098;-70
2022/01/24 13:22:36;;;;;;;49.30;32.35;;;5.50;99.90;;;;;;5092436;28;20048;-71
2022/01/24 13:25:09;;;;;;;53.38;33.63;;;5.40;99.90;;;;;;5092214;28;20495;-70
2022/01/24 13:27:36;;;;;;;55.30;37.72;;;5.40;99.90;;;;;;5092115;28;20450;-69
2022/01/24 13:30:10;;;;;;;44.20;31.13;;;5.40;99.90;;;;;;5126104;27;20062;-68
2022/01/24 13:32:47;;;;;;;39.42;28.08;;;;;;;;;;5091729;28;20115;-69
2022/01/24 13:35:33;;;;;;;47.65;33.33;;;;;;;;;;5091796;28;20056;-68
2022/01/24 13:38:08;;;;;;;79.93;47.92;;;5.30;99.90;;;;;;5091771;28;20125;-68
2022/01/24 13:40:34;;;;;;;85.95;50.83;;;;;;;;;;5091563;28;20055;-69
2022/01/24 13:43:00;;;;;;;39.45;29.00;;;;;;;;;;5093099;28;20131;-68
2022/01/24 13:45:26;;;;;;;36.20;28.98;;;;;;;;;;5092106;28;20131;-69
2022/01/24 13:47:59;;;;;;;36.60;29.10;;;;;;;;;;5092899;28;20088;-68
2022/01/24 13:50:25;;;;;;;68.28;42.00;;;;;;;;;;5092946;28;20059;-69
2022/01/24 13:52:51;;;;;;;42.33;29.50;;;;;;;;;;5091547;28;20044;-70
2022/01/24 13:55:19;;;;;;;38.30;29.73;;;;;;;;;;5091757;28;20076;-71
2022/01/24 13:57:48;;;;;;;35.85;27.88;;;;;;;;;;5091704;28;20124;-69
2022/01/24 14:00:16;;;;;;;36.40;28.55;;;;;;;;;;5091761;28;20048;-69
2022/01/24 14:02:42;;;;;;;41.38;30.83;;;;;;;;;;5090395;28;20059;-67
2022/01/24 14:05:09;;;;;;;36.20;27.73;;;;;;;;;;5092786;28;20492;-70
2022/01/24 14:07:41;;;;;;;30.65;24.85;;;;;;;;;;5092648;28;20052;-70
2022/01/24 14:10:09;;;;;;;33.58;25.17;;;;;;;;;;5092228;28;20048;-68
2022/01/24 14:12:45;;;;;;;34.47;26.33;;;;;;;;;;5091346;28;20131;-69
2022/01/24 14:15:19;;;;;;;32.78;25.45;;;;;;;;;;5093153;28;20052;-69
2022/01/24 14:18:07;;;;;;;35.05;25.67;;;;;;;;;;5092313;28;20056;-68
2022/01/24 14:20:33;;;;;;;31.98;25.20;;;;;;;;;;5074934;28;20051;-69
2022/01/24 14:23:01;;;;;;;30.77;24.98;;;;;;;;;;5092840;28;20052;-69
2022/01/24 14:25:29;;;;;;;32.92;25.77;;;;;;;;;;5091734;28;20052;-68
2022/01/24 14:28:07;;;;;;;31.95;24.02;;;;;;;;;;5092100;28;20429;-69
2022/01/24 14:30:42;;;;;;;32.58;25.33;;;;;;;;;;5091627;28;20579;-68
2022/01/24 14:33:12;;;;;;;34.72;25.80;;;;;;;;;;5092363;28;20210;-69
2022/01/24 14:35:57;;;;;;;32.20;26.23;;;;;;;;;;5092135;28;20058;-67
2022/01/24 14:38:33;;;;;;;33.35;26.13;;;;;;;;;;5060384;28;20493;-67
2022/01/24 14:41:02;;;;;;;28.13;22.42;;;;;;;;;;5089890;28;20058;-71
2022/01/24 14:46:15;;;;;;;39.78;28.80;;;;;;;;;;5080284;28;20492;-69
2022/01/24 14:48:50;;;;;;;40.55;29.85;;;;;;;;;;5078640;28;20506;-69
2022/01/24 14:51:18;;;;;;;33.33;24.65;;;;;;;;;;5082008;28;20051;-70